Preview of NWS' New Version of Forecast
This preview is not operational and should not be used for support decisions.

Terminal Aerodrome Forecast (TAF)

Issued by National Weather Service (NWS)

                            
000
FTUS42 KMFL 150918 AAA
TAFMIA
TAF AMD
KMIA 150918Z 1509/1612 16007KT P6SM SCT050 BKN090 BKN150
     FM151200 16008KT P6SM VCSH SCT020 BKN040 OVC100
     FM151600 19012KT P6SM VCSH SCT020 BKN035 OVC050
     FM152300 23009KT P6SM VCSH SCT020 BKN050 BKN200
     FM160300 29004KT P6SM SCT050 BKN080 BKN200=